Terminal Aerodrome Forecast
Issued by NWS Missoula, MT

Home | Current Version | Previous Version | Text Only | Print | Product List | Glossary On
Versions: 1 2 3 4 5 6 7 8 9 10 11 12 13 14 15 16
075
FTUS45 KMSO 281120
TAFMSO
TAF
KMSO 281120Z 2812/2912 VRB05KT P6SM SCT100
     FM282200 30008KT P6SM SCT100
     FM290300 VRB04KT P6SM SCT100=

USA.gov is the U.S. government's official web portal to all federal, state and local government web resources and services.